sensor_id;sensor_type;location;lat;lon;timestamp;P1;durP1;ratioP1;P2;durP2;ratioP2
49722;SDS011;43484;43.608;1.458;2023-04-24T00:02:18;6.50;;;2.10;;
49722;SDS011;43484;43.608;1.458;2023-04-24T00:04:45;7.18;;;2.17;;
49722;SDS011;43484;43.608;1.458;2023-04-24T00:07:12;10.15;;;2.72;;
49722;SDS011;43484;43.608;1.458;2023-04-24T00:09:39;12.60;;;3.67;;
49722;SDS011;43484;43.608;1.458;2023-04-24T00:12:06;8.70;;;2.38;;
49722;SDS011;43484;43.608;1.458;2023-04-24T00:14:33;8.45;;;3.22;;
49722;SDS011;43484;43.608;1.458;2023-04-24T00:17:01;10.77;;;2.70;;
49722;SDS011;43484;43.608;1.458;2023-04-24T00:19:28;10.55;;;2.90;;
49722;SDS011;43484;43.608;1.458;2023-04-24T00:21:55;13.07;;;3.65;;
49722;SDS011;43484;43.608;1.458;2023-04-24T00:24:22;9.40;;;3.42;;
49722;SDS011;43484;43.608;1.458;2023-04-24T00:26:48;12.02;;;3.38;;
49722;SDS011;43484;43.608;1.458;2023-04-24T00:29:15;11.85;;;3.13;;
49722;SDS011;43484;43.608;1.458;2023-04-24T00:31:42;8.57;;;2.83;;
49722;SDS011;43484;43.608;1.458;2023-04-24T00:34:09;12.45;;;3.50;;
49722;SDS011;43484;43.608;1.458;2023-04-24T00:36:38;13.15;;;3.80;;
49722;SDS011;43484;43.608;1.458;2023-04-24T00:39:04;12.07;;;4.45;;
49722;SDS011;43484;43.608;1.458;2023-04-24T00:41:31;10.43;;;2.92;;
49722;SDS011;43484;43.608;1.458;2023-04-24T00:43:58;7.30;;;2.67;;
49722;SDS011;43484;43.608;1.458;2023-04-24T00:46:24;8.45;;;3.10;;
49722;SDS011;43484;43.608;1.458;2023-04-24T00:48:51;15.63;;;5.07;;
49722;SDS011;43484;43.608;1.458;2023-04-24T00:51:18;16.55;;;7.30;;
49722;SDS011;43484;43.608;1.458;2023-04-24T00:53:45;18.05;;;8.80;;
49722;SDS011;43484;43.608;1.458;2023-04-24T00:56:11;16.35;;;8.25;;
49722;SDS011;43484;43.608;1.458;2023-04-24T00:58:38;18.17;;;8.93;;
49722;SDS011;43484;43.608;1.458;2023-04-24T01:01:04;20.60;;;8.30;;
49722;SDS011;43484;43.608;1.458;2023-04-24T01:03:33;12.90;;;7.85;;
49722;SDS011;43484;43.608;1.458;2023-04-24T01:06:03;17.67;;;7.22;;
49722;SDS011;43484;43.608;1.458;2023-04-24T01:08:31;14.45;;;6.70;;
49722;SDS011;43484;43.608;1.458;2023-04-24T01:10:58;17.40;;;5.63;;
49722;SDS011;43484;43.608;1.458;2023-04-24T01:13:26;13.75;;;4.68;;
49722;SDS011;43484;43.608;1.458;2023-04-24T01:15:53;19.50;;;5.05;;
49722;SDS011;43484;43.608;1.458;2023-04-24T01:18:20;8.60;;;4.00;;
49722;SDS011;43484;43.608;1.458;2023-04-24T01:20:48;19.05;;;3.95;;
49722;SDS011;43484;43.608;1.458;2023-04-24T01:23:19;12.73;;;3.35;;
49722;SDS011;43484;43.608;1.458;2023-04-24T01:25:46;9.80;;;3.30;;
49722;SDS011;43484;43.608;1.458;2023-04-24T01:28:12;10.07;;;2.70;;
49722;SDS011;43484;43.608;1.458;2023-04-24T01:30:40;8.25;;;3.03;;
49722;SDS011;43484;43.608;1.458;2023-04-24T01:33:07;10.82;;;2.28;;
49722;SDS011;43484;43.608;1.458;2023-04-24T01:35:34;11.23;;;2.20;;
49722;SDS011;43484;43.608;1.458;2023-04-24T01:38:02;8.40;;;2.30;;
49722;SDS011;43484;43.608;1.458;2023-04-24T01:40:29;15.50;;;3.03;;
49722;SDS011;43484;43.608;1.458;2023-04-24T01:42:57;7.13;;;2.05;;
49722;SDS011;43484;43.608;1.458;2023-04-24T01:45:24;11.07;;;2.75;;
49722;SDS011;43484;43.608;1.458;2023-04-24T01:47:51;9.60;;;2.80;;
49722;SDS011;43484;43.608;1.458;2023-04-24T01:50:18;14.00;;;2.58;;
49722;SDS011;43484;43.608;1.458;2023-04-24T01:52:45;7.03;;;1.40;;
49722;SDS011;43484;43.608;1.458;2023-04-24T01:55:11;14.98;;;1.92;;
49722;SDS011;43484;43.608;1.458;2023-04-24T01:57:38;13.45;;;1.95;;
49722;SDS011;43484;43.608;1.458;2023-04-24T02:00:06;8.75;;;1.77;;
49722;SDS011;43484;43.608;1.458;2023-04-24T02:02:33;9.82;;;1.55;;
49722;SDS011;43484;43.608;1.458;2023-04-24T02:05:00;11.10;;;1.52;;
49722;SDS011;43484;43.608;1.458;2023-04-24T02:07:27;5.85;;;1.35;;
49722;SDS011;43484;43.608;1.458;2023-04-24T02:09:53;8.18;;;1.55;;
49722;SDS011;43484;43.608;1.458;2023-04-24T02:12:22;4.38;;;1.38;;
49722;SDS011;43484;43.608;1.458;2023-04-24T02:14:48;8.48;;;1.27;;
49722;SDS011;43484;43.608;1.458;2023-04-24T02:17:15;7.65;;;1.50;;
49722;SDS011;43484;43.608;1.458;2023-04-24T02:19:42;6.88;;;1.40;;
49722;SDS011;43484;43.608;1.458;2023-04-24T02:22:09;5.80;;;1.25;;
49722;SDS011;43484;43.608;1.458;2023-04-24T02:24:37;12.90;;;2.30;;
49722;SDS011;43484;43.608;1.458;2023-04-24T02:27:04;6.63;;;1.40;;
49722;SDS011;43484;43.608;1.458;2023-04-24T02:29:31;10.07;;;1.38;;
49722;SDS011;43484;43.608;1.458;2023-04-24T02:31:57;21.88;;;2.15;;
49722;SDS011;43484;43.608;1.458;2023-04-24T02:34:24;14.77;;;2.10;;
49722;SDS011;43484;43.608;1.458;2023-04-24T02:36:51;9.55;;;1.50;;
49722;SDS011;43484;43.608;1.458;2023-04-24T02:39:20;10.75;;;2.03;;
49722;SDS011;43484;43.608;1.458;2023-04-24T02:41:46;8.00;;;1.67;;
49722;SDS011;43484;43.608;1.458;2023-04-24T02:44:13;10.52;;;2.13;;
49722;SDS011;43484;43.608;1.458;2023-04-24T02:46:39;10.93;;;1.70;;
49722;SDS011;43484;43.608;1.458;2023-04-24T02:49:08;13.18;;;2.40;;
49722;SDS011;43484;43.608;1.458;2023-04-24T02:51:34;8.95;;;1.20;;
49722;SDS011;43484;43.608;1.458;2023-04-24T02:54:01;8.90;;;1.50;;
49722;SDS011;43484;43.608;1.458;2023-04-24T02:56:27;7.20;;;1.80;;
49722;SDS011;43484;43.608;1.458;2023-04-24T02:58:54;6.47;;;1.38;;
49722;SDS011;43484;43.608;1.458;2023-04-24T03:01:21;10.60;;;1.95;;
49722;SDS011;43484;43.608;1.458;2023-04-24T03:03:47;10.38;;;2.13;;
49722;SDS011;43484;43.608;1.458;2023-04-24T03:06:14;8.45;;;1.83;;
49722;SDS011;43484;43.608;1.458;2023-04-24T03:08:41;7.43;;;1.08;;
49722;SDS011;43484;43.608;1.458;2023-04-24T03:11:08;7.07;;;1.60;;
49722;SDS011;43484;43.608;1.458;2023-04-24T03:13:34;7.07;;;1.10;;
49722;SDS011;43484;43.608;1.458;2023-04-24T03:16:01;7.68;;;1.35;;
49722;SDS011;43484;43.608;1.458;2023-04-24T03:18:28;8.13;;;0.95;;
49722;SDS011;43484;43.608;1.458;2023-04-24T03:20:54;16.58;;;1.75;;
49722;SDS011;43484;43.608;1.458;2023-04-24T03:23:21;10.73;;;1.35;;
49722;SDS011;43484;43.608;1.458;2023-04-24T03:25:47;9.32;;;0.98;;
49722;SDS011;43484;43.608;1.458;2023-04-24T03:28:14;4.05;;;0.98;;
49722;SDS011;43484;43.608;1.458;2023-04-24T03:30:41;16.88;;;1.80;;
49722;SDS011;43484;43.608;1.458;2023-04-24T03:33:07;12.70;;;1.17;;
49722;SDS011;43484;43.608;1.458;2023-04-24T03:35:34;11.00;;;1.35;;
49722;SDS011;43484;43.608;1.458;2023-04-24T03:38:00;11.68;;;1.42;;
49722;SDS011;43484;43.608;1.458;2023-04-24T03:40:28;10.68;;;1.60;;
49722;SDS011;43484;43.608;1.458;2023-04-24T03:42:55;8.30;;;1.20;;
49722;SDS011;43484;43.608;1.458;2023-04-24T03:45:22;10.23;;;1.73;;
49722;SDS011;43484;43.608;1.458;2023-04-24T03:47:48;8.27;;;1.20;;
49722;SDS011;43484;43.608;1.458;2023-04-24T03:50:15;8.02;;;1.08;;
49722;SDS011;43484;43.608;1.458;2023-04-24T03:52:42;5.55;;;1.10;;
49722;SDS011;43484;43.608;1.458;2023-04-24T03:55:08;9.23;;;1.38;;
49722;SDS011;43484;43.608;1.458;2023-04-24T03:57:40;4.32;;;1.30;;
49722;SDS011;43484;43.608;1.458;2023-04-24T04:00:07;13.20;;;1.52;;
49722;SDS011;43484;43.608;1.458;2023-04-24T04:02:35;13.40;;;1.48;;
49722;SDS011;43484;43.608;1.458;2023-04-24T04:05:02;4.40;;;1.05;;
49722;SDS011;43484;43.608;1.458;2023-04-24T04:07:29;9.60;;;1.48;;
49722;SDS011;43484;43.608;1.458;2023-04-24T04:09:56;6.60;;;1.13;;
49722;SDS011;43484;43.608;1.458;2023-04-24T04:12:22;8.32;;;1.52;;
49722;SDS011;43484;43.608;1.458;2023-04-24T04:14:49;7.35;;;1.20;;
49722;SDS011;43484;43.608;1.458;2023-04-24T04:17:15;6.95;;;1.13;;
49722;SDS011;43484;43.608;1.458;2023-04-24T04:19:42;7.40;;;1.10;;
49722;SDS011;43484;43.608;1.458;2023-04-24T04:22:09;11.00;;;1.60;;
49722;SDS011;43484;43.608;1.458;2023-04-24T04:24:35;8.75;;;1.38;;
49722;SDS011;43484;43.608;1.458;2023-04-24T04:27:04;9.68;;;0.98;;
49722;SDS011;43484;43.608;1.458;2023-04-24T04:29:31;14.15;;;1.48;;
49722;SDS011;43484;43.608;1.458;2023-04-24T04:31:58;6.18;;;1.73;;
49722;SDS011;43484;43.608;1.458;2023-04-24T04:34:25;6.72;;;1.20;;
49722;SDS011;43484;43.608;1.458;2023-04-24T04:36:52;10.27;;;1.30;;
49722;SDS011;43484;43.608;1.458;2023-04-24T04:39:18;10.35;;;1.48;;
49722;SDS011;43484;43.608;1.458;2023-04-24T04:41:45;10.77;;;1.77;;
49722;SDS011;43484;43.608;1.458;2023-04-24T04:44:15;6.28;;;1.20;;
49722;SDS011;43484;43.608;1.458;2023-04-24T04:46:41;7.55;;;1.40;;
49722;SDS011;43484;43.608;1.458;2023-04-24T04:49:08;13.80;;;1.80;;
49722;SDS011;43484;43.608;1.458;2023-04-24T04:51:34;14.52;;;2.00;;
49722;SDS011;43484;43.608;1.458;2023-04-24T04:54:01;9.15;;;1.35;;
49722;SDS011;43484;43.608;1.458;2023-04-24T04:56:28;11.43;;;2.13;;
49722;SDS011;43484;43.608;1.458;2023-04-24T04:58:54;7.22;;;1.50;;
49722;SDS011;43484;43.608;1.458;2023-04-24T05:01:21;7.82;;;1.25;;
49722;SDS011;43484;43.608;1.458;2023-04-24T05:03:49;13.65;;;2.08;;
49722;SDS011;43484;43.608;1.458;2023-04-24T05:06:16;12.32;;;3.03;;
49722;SDS011;43484;43.608;1.458;2023-04-24T05:08:43;11.93;;;1.65;;
49722;SDS011;43484;43.608;1.458;2023-04-24T05:11:10;9.52;;;1.83;;
49722;SDS011;43484;43.608;1.458;2023-04-24T05:13:36;14.23;;;1.83;;
49722;SDS011;43484;43.608;1.458;2023-04-24T05:16:06;10.70;;;1.30;;
49722;SDS011;43484;43.608;1.458;2023-04-24T05:18:34;9.68;;;1.60;;
49722;SDS011;43484;43.608;1.458;2023-04-24T05:21:00;14.57;;;2.13;;
49722;SDS011;43484;43.608;1.458;2023-04-24T05:23:27;9.70;;;1.45;;
49722;SDS011;43484;43.608;1.458;2023-04-24T05:25:54;8.15;;;1.23;;
49722;SDS011;43484;43.608;1.458;2023-04-24T05:28:20;10.55;;;2.25;;
49722;SDS011;43484;43.608;1.458;2023-04-24T05:30:47;15.23;;;1.92;;
49722;SDS011;43484;43.608;1.458;2023-04-24T05:33:13;13.93;;;1.60;;
49722;SDS011;43484;43.608;1.458;2023-04-24T05:35:40;13.70;;;1.67;;
49722;SDS011;43484;43.608;1.458;2023-04-24T05:38:12;9.07;;;1.90;;
49722;SDS011;43484;43.608;1.458;2023-04-24T05:40:39;14.55;;;2.17;;
49722;SDS011;43484;43.608;1.458;2023-04-24T05:43:06;15.90;;;2.13;;
49722;SDS011;43484;43.608;1.458;2023-04-24T05:45:32;9.77;;;1.80;;
49722;SDS011;43484;43.608;1.458;2023-04-24T05:48:02;10.20;;;1.38;;
49722;SDS011;43484;43.608;1.458;2023-04-24T05:50:29;14.23;;;1.58;;
49722;SDS011;43484;43.608;1.458;2023-04-24T05:52:56;11.82;;;2.08;;
49722;SDS011;43484;43.608;1.458;2023-04-24T05:55:25;12.05;;;1.40;;
49722;SDS011;43484;43.608;1.458;2023-04-24T05:57:52;15.77;;;3.15;;
49722;SDS011;43484;43.608;1.458;2023-04-24T06:00:18;11.93;;;1.33;;
49722;SDS011;43484;43.608;1.458;2023-04-24T06:02:46;14.95;;;2.53;;
49722;SDS011;43484;43.608;1.458;2023-04-24T06:05:13;12.52;;;2.17;;
49722;SDS011;43484;43.608;1.458;2023-04-24T06:07:41;14.85;;;2.33;;
49722;SDS011;43484;43.608;1.458;2023-04-24T06:10:08;9.70;;;2.13;;
49722;SDS011;43484;43.608;1.458;2023-04-24T06:12:35;13.35;;;1.77;;
49722;SDS011;43484;43.608;1.458;2023-04-24T06:15:03;10.57;;;1.85;;
49722;SDS011;43484;43.608;1.458;2023-04-24T06:17:30;8.77;;;1.65;;
49722;SDS011;43484;43.608;1.458;2023-04-24T06:19:57;12.02;;;1.70;;
49722;SDS011;43484;43.608;1.458;2023-04-24T06:22:23;18.42;;;2.75;;
49722;SDS011;43484;43.608;1.458;2023-04-24T06:24:50;17.05;;;2.30;;
49722;SDS011;43484;43.608;1.458;2023-04-24T06:27:17;14.43;;;1.77;;
49722;SDS011;43484;43.608;1.458;2023-04-24T06:29:43;8.93;;;1.70;;
49722;SDS011;43484;43.608;1.458;2023-04-24T06:32:10;14.23;;;2.35;;
49722;SDS011;43484;43.608;1.458;2023-04-24T06:34:37;10.23;;;1.48;;
49722;SDS011;43484;43.608;1.458;2023-04-24T06:37:04;14.18;;;2.05;;
49722;SDS011;43484;43.608;1.458;2023-04-24T06:39:31;14.57;;;2.55;;
49722;SDS011;43484;43.608;1.458;2023-04-24T06:41:58;11.05;;;2.47;;
49722;SDS011;43484;43.608;1.458;2023-04-24T06:44:25;12.88;;;1.65;;
49722;SDS011;43484;43.608;1.458;2023-04-24T06:46:51;17.08;;;2.33;;
49722;SDS011;43484;43.608;1.458;2023-04-24T06:49:18;13.63;;;2.30;;
49722;SDS011;43484;43.608;1.458;2023-04-24T06:51:44;9.57;;;1.88;;
49722;SDS011;43484;43.608;1.458;2023-04-24T06:54:11;13.50;;;2.20;;
49722;SDS011;43484;43.608;1.458;2023-04-24T06:56:38;13.77;;;2.17;;
49722;SDS011;43484;43.608;1.458;2023-04-24T06:59:04;13.13;;;2.22;;
49722;SDS011;43484;43.608;1.458;2023-04-24T07:01:31;13.55;;;1.83;;
49722;SDS011;43484;43.608;1.458;2023-04-24T07:03:57;16.15;;;2.08;;
49722;SDS011;43484;43.608;1.458;2023-04-24T07:06:24;17.25;;;1.90;;
49722;SDS011;43484;43.608;1.458;2023-04-24T07:08:51;14.10;;;2.30;;
49722;SDS011;43484;43.608;1.458;2023-04-24T07:11:18;9.77;;;1.52;;
49722;SDS011;43484;43.608;1.458;2023-04-24T07:13:44;9.57;;;1.98;;
49722;SDS011;43484;43.608;1.458;2023-04-24T07:16:11;14.48;;;2.35;;
49722;SDS011;43484;43.608;1.458;2023-04-24T07:18:38;11.63;;;2.00;;
49722;SDS011;43484;43.608;1.458;2023-04-24T07:21:06;14.15;;;1.58;;
49722;SDS011;43484;43.608;1.458;2023-04-24T07:23:33;9.07;;;2.15;;
49722;SDS011;43484;43.608;1.458;2023-04-24T07:25:59;14.05;;;2.45;;
49722;SDS011;43484;43.608;1.458;2023-04-24T07:28:26;6.00;;;1.80;;
49722;SDS011;43484;43.608;1.458;2023-04-24T07:30:53;8.52;;;1.73;;
49722;SDS011;43484;43.608;1.458;2023-04-24T07:33:20;7.13;;;1.65;;
49722;SDS011;43484;43.608;1.458;2023-04-24T07:35:47;11.50;;;2.55;;
49722;SDS011;43484;43.608;1.458;2023-04-24T07:38:13;12.98;;;1.83;;
49722;SDS011;43484;43.608;1.458;2023-04-24T07:40:40;18.88;;;3.10;;
49722;SDS011;43484;43.608;1.458;2023-04-24T07:43:08;6.53;;;2.05;;
49722;SDS011;43484;43.608;1.458;2023-04-24T07:45:34;9.77;;;2.00;;
49722;SDS011;43484;43.608;1.458;2023-04-24T07:48:03;4.65;;;1.40;;
49722;SDS011;43484;43.608;1.458;2023-04-24T07:50:30;7.18;;;1.20;;
49722;SDS011;43484;43.608;1.458;2023-04-24T07:52:57;7.88;;;1.50;;
49722;SDS011;43484;43.608;1.458;2023-04-24T07:55:24;9.80;;;1.33;;
49722;SDS011;43484;43.608;1.458;2023-04-24T07:57:53;5.65;;;1.17;;
49722;SDS011;43484;43.608;1.458;2023-04-24T08:00:20;9.30;;;1.42;;
49722;SDS011;43484;43.608;1.458;2023-04-24T08:02:47;3.88;;;1.08;;
49722;SDS011;43484;43.608;1.458;2023-04-24T08:05:14;11.25;;;1.65;;
49722;SDS011;43484;43.608;1.458;2023-04-24T08:07:41;6.32;;;1.45;;
49722;SDS011;43484;43.608;1.458;2023-04-24T08:10:11;12.57;;;1.25;;
49722;SDS011;43484;43.608;1.458;2023-04-24T08:12:38;8.98;;;1.00;;
49722;SDS011;43484;43.608;1.458;2023-04-24T08:15:05;7.03;;;0.88;;
49722;SDS011;43484;43.608;1.458;2023-04-24T08:17:33;10.80;;;1.15;;
49722;SDS011;43484;43.608;1.458;2023-04-24T08:20:01;7.03;;;1.90;;
49722;SDS011;43484;43.608;1.458;2023-04-24T08:22:30;13.32;;;1.05;;
49722;SDS011;43484;43.608;1.458;2023-04-24T08:24:57;10.10;;;1.15;;
49722;SDS011;43484;43.608;1.458;2023-04-24T08:27:26;8.63;;;0.90;;
49722;SDS011;43484;43.608;1.458;2023-04-24T08:29:54;8.60;;;0.85;;
49722;SDS011;43484;43.608;1.458;2023-04-24T08:32:20;13.88;;;1.65;;
49722;SDS011;43484;43.608;1.458;2023-04-24T08:34:47;4.85;;;0.60;;
49722;SDS011;43484;43.608;1.458;2023-04-24T08:37:15;10.23;;;1.10;;
49722;SDS011;43484;43.608;1.458;2023-04-24T08:39:41;10.57;;;1.08;;
49722;SDS011;43484;43.608;1.458;2023-04-24T08:42:08;7.30;;;1.00;;
49722;SDS011;43484;43.608;1.458;2023-04-24T08:44:35;8.65;;;0.73;;
49722;SDS011;43484;43.608;1.458;2023-04-24T08:47:02;7.38;;;0.60;;
49722;SDS011;43484;43.608;1.458;2023-04-24T08:49:29;6.75;;;0.80;;
49722;SDS011;43484;43.608;1.458;2023-04-24T08:51:56;6.10;;;0.82;;
49722;SDS011;43484;43.608;1.458;2023-04-24T08:54:23;6.72;;;0.90;;
49722;SDS011;43484;43.608;1.458;2023-04-24T08:56:51;7.28;;;0.70;;
49722;SDS011;43484;43.608;1.458;2023-04-24T08:59:20;5.10;;;0.95;;
49722;SDS011;43484;43.608;1.458;2023-04-24T09:01:48;10.00;;;1.48;;
49722;SDS011;43484;43.608;1.458;2023-04-24T09:04:17;4.60;;;0.82;;
49722;SDS011;43484;43.608;1.458;2023-04-24T09:06:48;7.25;;;1.45;;
49722;SDS011;43484;43.608;1.458;2023-04-24T09:09:16;7.13;;;1.30;;
49722;SDS011;43484;43.608;1.458;2023-04-24T09:11:43;6.20;;;0.65;;
49722;SDS011;43484;43.608;1.458;2023-04-24T09:14:10;8.55;;;0.65;;
49722;SDS011;43484;43.608;1.458;2023-04-24T09:16:37;3.25;;;1.00;;
49722;SDS011;43484;43.608;1.458;2023-04-24T09:19:03;6.65;;;0.70;;
49722;SDS011;43484;43.608;1.458;2023-04-24T09:21:34;2.88;;;0.90;;
49722;SDS011;43484;43.608;1.458;2023-04-24T09:24:05;5.72;;;0.60;;
49722;SDS011;43484;43.608;1.458;2023-04-24T09:26:36;7.22;;;0.90;;
49722;SDS011;43484;43.608;1.458;2023-04-24T09:29:03;5.10;;;1.60;;
49722;SDS011;43484;43.608;1.458;2023-04-24T09:31:31;2.72;;;0.60;;
49722;SDS011;43484;43.608;1.458;2023-04-24T09:33:59;3.38;;;0.60;;
49722;SDS011;43484;43.608;1.458;2023-04-24T09:36:30;3.28;;;0.80;;
49722;SDS011;43484;43.608;1.458;2023-04-24T09:39:00;2.50;;;0.82;;
49722;SDS011;43484;43.608;1.458;2023-04-24T09:41:28;4.10;;;0.82;;
49722;SDS011;43484;43.608;1.458;2023-04-24T09:43:55;5.07;;;1.05;;
49722;SDS011;43484;43.608;1.458;2023-04-24T09:46:29;3.40;;;0.35;;
49722;SDS011;43484;43.608;1.458;2023-04-24T09:49:07;3.45;;;0.50;;
49722;SDS011;43484;43.608;1.458;2023-04-24T09:51:36;2.47;;;0.52;;
49722;SDS011;43484;43.608;1.458;2023-04-24T09:54:04;10.40;;;1.00;;
49722;SDS011;43484;43.608;1.458;2023-04-24T09:56:48;4.20;;;0.40;;
49722;SDS011;43484;43.608;1.458;2023-04-24T09:59:17;4.70;;;0.88;;
49722;SDS011;43484;43.608;1.458;2023-04-24T10:01:45;2.72;;;0.45;;
49722;SDS011;43484;43.608;1.458;2023-04-24T10:04:21;4.40;;;0.57;;
49722;SDS011;43484;43.608;1.458;2023-04-24T10:06:51;5.40;;;1.00;;
49722;SDS011;43484;43.608;1.458;2023-04-24T10:09:21;5.30;;;0.40;;
49722;SDS011;43484;43.608;1.458;2023-04-24T10:11:50;4.10;;;0.63;;
49722;SDS011;43484;43.608;1.458;2023-04-24T10:14:20;4.13;;;0.47;;
49722;SDS011;43484;43.608;1.458;2023-04-24T10:16:49;3.70;;;0.60;;
49722;SDS011;43484;43.608;1.458;2023-04-24T10:19:19;5.32;;;1.42;;
49722;SDS011;43484;43.608;1.458;2023-04-24T10:21:46;10.05;;;0.82;;
49722;SDS011;43484;43.608;1.458;2023-04-24T10:24:14;9.85;;;0.80;;
49722;SDS011;43484;43.608;1.458;2023-04-24T10:26:42;7.07;;;0.63;;
49722;SDS011;43484;43.608;1.458;2023-04-24T10:29:11;8.27;;;0.88;;
49722;SDS011;43484;43.608;1.458;2023-04-24T10:31:39;3.85;;;0.47;;
49722;SDS011;43484;43.608;1.458;2023-04-24T10:34:07;2.10;;;0.63;;
49722;SDS011;43484;43.608;1.458;2023-04-24T10:36:35;9.15;;;0.90;;
49722;SDS011;43484;43.608;1.458;2023-04-24T10:39:06;2.95;;;0.50;;
49722;SDS011;43484;43.608;1.458;2023-04-24T10:41:37;3.25;;;0.65;;
49722;SDS011;43484;43.608;1.458;2023-04-24T10:44:05;6.68;;;0.77;;
49722;SDS011;43484;43.608;1.458;2023-04-24T10:46:36;3.70;;;0.60;;
49722;SDS011;43484;43.608;1.458;2023-04-24T10:49:04;6.63;;;1.15;;
49722;SDS011;43484;43.608;1.458;2023-04-24T10:51:48;3.67;;;1.23;;
49722;SDS011;43484;43.608;1.458;2023-04-24T10:54:26;6.45;;;1.00;;
49722;SDS011;43484;43.608;1.458;2023-04-24T10:59:47;3.67;;;0.50;;
49722;SDS011;43484;43.608;1.458;2023-04-24T11:02:16;3.10;;;0.52;;
49722;SDS011;43484;43.608;1.458;2023-04-24T11:04:43;11.02;;;0.93;;
49722;SDS011;43484;43.608;1.458;2023-04-24T11:07:11;4.72;;;0.60;;
49722;SDS011;43484;43.608;1.458;2023-04-24T11:09:38;4.97;;;0.60;;
49722;SDS011;43484;43.608;1.458;2023-04-24T11:12:10;4.57;;;0.77;;
49722;SDS011;43484;43.608;1.458;2023-04-24T11:15:01;4.38;;;0.52;;
49722;SDS011;43484;43.608;1.458;2023-04-24T11:17:31;4.40;;;0.85;;
49722;SDS011;43484;43.608;1.458;2023-04-24T11:20:03;6.88;;;0.85;;
49722;SDS011;43484;43.608;1.458;2023-04-24T11:22:55;6.85;;;1.45;;
49722;SDS011;43484;43.608;1.458;2023-04-24T11:25:24;2.22;;;0.50;;
49722;SDS011;43484;43.608;1.458;2023-04-24T11:27:51;6.10;;;0.93;;
49722;SDS011;43484;43.608;1.458;2023-04-24T11:30:30;7.53;;;0.65;;
49722;SDS011;43484;43.608;1.458;2023-04-24T11:33:01;5.05;;;0.40;;
49722;SDS011;43484;43.608;1.458;2023-04-24T11:35:29;7.57;;;1.48;;
49722;SDS011;43484;43.608;1.458;2023-04-24T11:37:56;3.13;;;0.88;;
49722;SDS011;43484;43.608;1.458;2023-04-24T11:40:26;2.70;;;0.73;;
49722;SDS011;43484;43.608;1.458;2023-04-24T11:42:53;3.25;;;0.68;;
49722;SDS011;43484;43.608;1.458;2023-04-24T11:45:26;3.58;;;0.70;;
49722;SDS011;43484;43.608;1.458;2023-04-24T11:47:56;6.45;;;0.90;;
49722;SDS011;43484;43.608;1.458;2023-04-24T11:50:26;4.40;;;1.05;;
49722;SDS011;43484;43.608;1.458;2023-04-24T11:52:54;5.05;;;0.63;;
49722;SDS011;43484;43.608;1.458;2023-04-24T11:57:49;6.03;;;0.80;;
49722;SDS011;43484;43.608;1.458;2023-04-24T12:00:20;5.95;;;1.13;;
49722;SDS011;43484;43.608;1.458;2023-04-24T12:02:48;5.18;;;0.70;;
49722;SDS011;43484;43.608;1.458;2023-04-24T12:05:20;5.95;;;0.57;;
49722;SDS011;43484;43.608;1.458;2023-04-24T12:07:48;3.20;;;0.85;;
49722;SDS011;43484;43.608;1.458;2023-04-24T12:10:19;6.97;;;1.13;;
49722;SDS011;43484;43.608;1.458;2023-04-24T12:12:50;4.03;;;0.50;;
49722;SDS011;43484;43.608;1.458;2023-04-24T12:15:18;3.70;;;0.93;;
49722;SDS011;43484;43.608;1.458;2023-04-24T12:17:46;3.65;;;0.80;;
49722;SDS011;43484;43.608;1.458;2023-04-24T12:20:14;6.82;;;0.63;;
49722;SDS011;43484;43.608;1.458;2023-04-24T12:22:44;3.80;;;0.60;;
49722;SDS011;43484;43.608;1.458;2023-04-24T12:25:15;6.85;;;0.75;;
49722;SDS011;43484;43.608;1.458;2023-04-24T12:27:43;2.72;;;0.80;;
49722;SDS011;43484;43.608;1.458;2023-04-24T12:30:14;5.65;;;0.90;;
49722;SDS011;43484;43.608;1.458;2023-04-24T12:32:43;5.07;;;1.10;;
49722;SDS011;43484;43.608;1.458;2023-04-24T12:35:18;8.10;;;1.05;;
49722;SDS011;43484;43.608;1.458;2023-04-24T12:37:46;5.93;;;0.77;;
49722;SDS011;43484;43.608;1.458;2023-04-24T12:40:13;4.25;;;0.75;;
49722;SDS011;43484;43.608;1.458;2023-04-24T12:42:50;2.70;;;0.60;;
49722;SDS011;43484;43.608;1.458;2023-04-24T12:45:18;5.90;;;0.80;;
49722;SDS011;43484;43.608;1.458;2023-04-24T12:47:45;3.92;;;0.80;;
49722;SDS011;43484;43.608;1.458;2023-04-24T12:50:13;5.70;;;0.75;;
49722;SDS011;43484;43.608;1.458;2023-04-24T12:52:41;3.17;;;0.47;;
49722;SDS011;43484;43.608;1.458;2023-04-24T12:55:09;4.43;;;0.50;;
49722;SDS011;43484;43.608;1.458;2023-04-24T12:57:37;3.40;;;0.63;;
49722;SDS011;43484;43.608;1.458;2023-04-24T13:00:06;4.32;;;0.70;;
49722;SDS011;43484;43.608;1.458;2023-04-24T13:02:34;4.85;;;0.93;;
49722;SDS011;43484;43.608;1.458;2023-04-24T13:05:01;4.57;;;0.50;;
49722;SDS011;43484;43.608;1.458;2023-04-24T13:07:28;2.85;;;0.40;;
49722;SDS011;43484;43.608;1.458;2023-04-24T13:09:56;3.60;;;0.50;;
49722;SDS011;43484;43.608;1.458;2023-04-24T13:12:24;5.20;;;0.60;;
49722;SDS011;43484;43.608;1.458;2023-04-24T13:14:51;4.63;;;0.50;;
49722;SDS011;43484;43.608;1.458;2023-04-24T13:17:18;4.35;;;0.57;;
49722;SDS011;43484;43.608;1.458;2023-04-24T13:19:45;2.75;;;0.52;;
49722;SDS011;43484;43.608;1.458;2023-04-24T13:22:12;5.18;;;0.88;;
49722;SDS011;43484;43.608;1.458;2023-04-24T13:24:39;4.03;;;0.40;;
49722;SDS011;43484;43.608;1.458;2023-04-24T13:27:07;2.58;;;0.63;;
49722;SDS011;43484;43.608;1.458;2023-04-24T13:29:35;4.93;;;0.70;;
49722;SDS011;43484;43.608;1.458;2023-04-24T13:32:02;2.55;;;0.80;;
49722;SDS011;43484;43.608;1.458;2023-04-24T13:34:29;6.22;;;0.98;;
49722;SDS011;43484;43.608;1.458;2023-04-24T13:36:56;3.53;;;0.80;;
49722;SDS011;43484;43.608;1.458;2023-04-24T13:39:24;3.65;;;0.80;;
49722;SDS011;43484;43.608;1.458;2023-04-24T13:41:52;5.65;;;1.00;;
49722;SDS011;43484;43.608;1.458;2023-04-24T13:44:19;12.55;;;1.55;;
49722;SDS011;43484;43.608;1.458;2023-04-24T13:46:47;4.10;;;0.88;;
49722;SDS011;43484;43.608;1.458;2023-04-24T13:49:15;5.05;;;0.80;;
49722;SDS011;43484;43.608;1.458;2023-04-24T13:51:42;2.55;;;0.40;;
49722;SDS011;43484;43.608;1.458;2023-04-24T13:54:09;4.68;;;0.90;;
49722;SDS011;43484;43.608;1.458;2023-04-24T13:56:36;5.07;;;0.80;;
49722;SDS011;43484;43.608;1.458;2023-04-24T13:59:03;8.10;;;0.50;;
49722;SDS011;43484;43.608;1.458;2023-04-24T14:01:30;7.80;;;1.02;;
49722;SDS011;43484;43.608;1.458;2023-04-24T14:03:57;4.20;;;1.05;;
49722;SDS011;43484;43.608;1.458;2023-04-24T14:06:23;2.75;;;0.50;;
49722;SDS011;43484;43.608;1.458;2023-04-24T14:08:50;4.60;;;1.30;;
49722;SDS011;43484;43.608;1.458;2023-04-24T14:11:17;3.05;;;0.55;;
49722;SDS011;43484;43.608;1.458;2023-04-24T14:13:45;10.50;;;0.70;;
49722;SDS011;43484;43.608;1.458;2023-04-24T14:16:12;6.25;;;0.60;;
49722;SDS011;43484;43.608;1.458;2023-04-24T14:18:39;5.20;;;0.50;;
49722;SDS011;43484;43.608;1.458;2023-04-24T14:21:05;7.47;;;0.98;;
49722;SDS011;43484;43.608;1.458;2023-04-24T14:23:33;3.55;;;0.50;;
49722;SDS011;43484;43.608;1.458;2023-04-24T14:25:59;4.60;;;0.50;;
49722;SDS011;43484;43.608;1.458;2023-04-24T14:28:26;5.03;;;1.00;;
49722;SDS011;43484;43.608;1.458;2023-04-24T14:30:53;5.97;;;0.80;;
49722;SDS011;43484;43.608;1.458;2023-04-24T14:33:19;3.70;;;0.52;;
49722;SDS011;43484;43.608;1.458;2023-04-24T14:35:46;6.70;;;0.98;;
49722;SDS011;43484;43.608;1.458;2023-04-24T14:38:13;3.50;;;0.43;;
49722;SDS011;43484;43.608;1.458;2023-04-24T14:40:41;5.25;;;0.90;;
49722;SDS011;43484;43.608;1.458;2023-04-24T14:43:11;5.47;;;0.70;;
49722;SDS011;43484;43.608;1.458;2023-04-24T14:45:38;3.60;;;0.50;;
49722;SDS011;43484;43.608;1.458;2023-04-24T14:48:06;8.13;;;0.57;;
49722;SDS011;43484;43.608;1.458;2023-04-24T14:50:35;2.92;;;0.52;;
49722;SDS011;43484;43.608;1.458;2023-04-24T14:53:01;3.75;;;0.70;;